sensor_id;sensor_type;location;lat;lon;timestamp;P1;durP1;ratioP1;P2;durP2;ratioP2
14892;SDS011;7538;53.626;9.906;2023-07-29T00:01:13;5.30;;;4.80;;
14892;SDS011;7538;53.626;9.906;2023-07-29T00:03:46;6.22;;;4.63;;
14892;SDS011;7538;53.626;9.906;2023-07-29T00:06:13;5.63;;;5.13;;
14892;SDS011;7538;53.626;9.906;2023-07-29T00:08:40;5.50;;;5.00;;
14892;SDS011;7538;53.626;9.906;2023-07-29T00:11:08;5.68;;;5.18;;
14892;SDS011;7538;53.626;9.906;2023-07-29T00:13:35;5.47;;;4.97;;
14892;SDS011;7538;53.626;9.906;2023-07-29T00:16:02;5.53;;;5.03;;
14892;SDS011;7538;53.626;9.906;2023-07-29T00:18:29;5.45;;;4.95;;
14892;SDS011;7538;53.626;9.906;2023-07-29T00:20:56;5.60;;;5.10;;
14892;SDS011;7538;53.626;9.906;2023-07-29T00:23:23;5.78;;;5.28;;
14892;SDS011;7538;53.626;9.906;2023-07-29T00:25:50;5.68;;;5.18;;
14892;SDS011;7538;53.626;9.906;2023-07-29T00:28:18;6.57;;;5.25;;
14892;SDS011;7538;53.626;9.906;2023-07-29T00:30:53;6.13;;;5.63;;
14892;SDS011;7538;53.626;9.906;2023-07-29T00:33:21;6.25;;;5.63;;
14892;SDS011;7538;53.626;9.906;2023-07-29T00:35:48;6.22;;;5.72;;
14892;SDS011;7538;53.626;9.906;2023-07-29T00:38:15;5.93;;;5.32;;
14892;SDS011;7538;53.626;9.906;2023-07-29T00:40:42;6.15;;;5.65;;
14892;SDS011;7538;53.626;9.906;2023-07-29T00:43:09;7.18;;;5.97;;
14892;SDS011;7538;53.626;9.906;2023-07-29T00:45:40;6.03;;;5.53;;
14892;SDS011;7538;53.626;9.906;2023-07-29T00:50:47;7.85;;;6.07;;
14892;SDS011;7538;53.626;9.906;2023-07-29T00:53:14;9.75;;;6.53;;
14892;SDS011;7538;53.626;9.906;2023-07-29T00:55:41;7.18;;;5.90;;
14892;SDS011;7538;53.626;9.906;2023-07-29T00:58:09;6.88;;;6.28;;
14892;SDS011;7538;53.626;9.906;2023-07-29T01:00:36;6.82;;;5.70;;
14892;SDS011;7538;53.626;9.906;2023-07-29T01:03:04;7.15;;;6.45;;
14892;SDS011;7538;53.626;9.906;2023-07-29T01:08:55;6.70;;;6.10;;
14892;SDS011;7538;53.626;9.906;2023-07-29T01:11:41;5.43;;;5.00;;
14892;SDS011;7538;53.626;9.906;2023-07-29T01:14:17;6.90;;;6.30;;
14892;SDS011;7538;53.626;9.906;2023-07-29T01:16:55;6.45;;;5.72;;
14892;SDS011;7538;53.626;9.906;2023-07-29T01:19:32;6.38;;;5.78;;
14892;SDS011;7538;53.626;9.906;2023-07-29T01:22:09;6.70;;;6.10;;
14892;SDS011;7538;53.626;9.906;2023-07-29T01:24:39;7.93;;;6.07;;
14892;SDS011;7538;53.626;9.906;2023-07-29T01:27:07;5.95;;;5.35;;
14892;SDS011;7538;53.626;9.906;2023-07-29T01:29:33;6.03;;;5.53;;
14892;SDS011;7538;53.626;9.906;2023-07-29T01:32:01;6.00;;;5.50;;
14892;SDS011;7538;53.626;9.906;2023-07-29T01:34:35;6.57;;;5.95;;
14892;SDS011;7538;53.626;9.906;2023-07-29T01:37:05;6.03;;;5.15;;
14892;SDS011;7538;53.626;9.906;2023-07-29T01:39:36;5.82;;;5.32;;
14892;SDS011;7538;53.626;9.906;2023-07-29T01:42:06;6.80;;;6.20;;
14892;SDS011;7538;53.626;9.906;2023-07-29T01:44:33;6.45;;;5.78;;
14892;SDS011;7538;53.626;9.906;2023-07-29T01:47:02;5.90;;;5.40;;
14892;SDS011;7538;53.626;9.906;2023-07-29T01:49:29;6.10;;;5.60;;
14892;SDS011;7538;53.626;9.906;2023-07-29T01:51:56;6.18;;;5.57;;
14892;SDS011;7538;53.626;9.906;2023-07-29T01:54:23;5.90;;;5.32;;
14892;SDS011;7538;53.626;9.906;2023-07-29T01:56:52;8.07;;;6.32;;
14892;SDS011;7538;53.626;9.906;2023-07-29T01:59:18;7.47;;;6.53;;
14892;SDS011;7538;53.626;9.906;2023-07-29T02:01:45;13.75;;;9.52;;
14892;SDS011;7538;53.626;9.906;2023-07-29T02:04:13;11.05;;;8.68;;
14892;SDS011;7538;53.626;9.906;2023-07-29T02:06:42;9.40;;;8.25;;
14892;SDS011;7538;53.626;9.906;2023-07-29T02:09:09;13.13;;;9.35;;
14892;SDS011;7538;53.626;9.906;2023-07-29T02:11:36;22.50;;;13.63;;
14892;SDS011;7538;53.626;9.906;2023-07-29T02:14:06;24.13;;;14.35;;
14892;SDS011;7538;53.626;9.906;2023-07-29T02:16:33;24.55;;;15.02;;
14892;SDS011;7538;53.626;9.906;2023-07-29T02:19:00;32.45;;;17.00;;
14892;SDS011;7538;53.626;9.906;2023-07-29T02:21:27;29.48;;;18.48;;
14892;SDS011;7538;53.626;9.906;2023-07-29T02:23:56;20.33;;;14.80;;
14892;SDS011;7538;53.626;9.906;2023-07-29T02:26:26;22.75;;;15.48;;
14892;SDS011;7538;53.626;9.906;2023-07-29T02:28:59;19.25;;;13.40;;
14892;SDS011;7538;53.626;9.906;2023-07-29T02:31:27;23.20;;;15.07;;
14892;SDS011;7538;53.626;9.906;2023-07-29T02:33:54;23.63;;;15.10;;
14892;SDS011;7538;53.626;9.906;2023-07-29T02:36:21;36.78;;;19.83;;
14892;SDS011;7538;53.626;9.906;2023-07-29T02:38:48;21.10;;;14.57;;
14892;SDS011;7538;53.626;9.906;2023-07-29T02:41:15;41.58;;;21.65;;
14892;SDS011;7538;53.626;9.906;2023-07-29T02:43:42;27.83;;;18.75;;
14892;SDS011;7538;53.626;9.906;2023-07-29T02:46:09;25.98;;;16.92;;
14892;SDS011;7538;53.626;9.906;2023-07-29T02:48:37;28.05;;;18.05;;
14892;SDS011;7538;53.626;9.906;2023-07-29T02:51:06;17.50;;;14.10;;
14892;SDS011;7538;53.626;9.906;2023-07-29T02:54:12;20.33;;;15.40;;
14892;SDS011;7538;53.626;9.906;2023-07-29T02:56:42;25.95;;;18.35;;
14892;SDS011;7538;53.626;9.906;2023-07-29T02:59:13;38.40;;;23.08;;
14892;SDS011;7538;53.626;9.906;2023-07-29T03:01:40;23.23;;;18.20;;
14892;SDS011;7538;53.626;9.906;2023-07-29T03:04:08;25.13;;;18.45;;
14892;SDS011;7538;53.626;9.906;2023-07-29T03:06:38;39.88;;;23.08;;
14892;SDS011;7538;53.626;9.906;2023-07-29T03:09:05;26.33;;;19.17;;
14892;SDS011;7538;53.626;9.906;2023-07-29T03:11:31;28.02;;;20.60;;
14892;SDS011;7538;53.626;9.906;2023-07-29T03:13:58;39.22;;;24.58;;
14892;SDS011;7538;53.626;9.906;2023-07-29T03:16:25;32.28;;;22.50;;
14892;SDS011;7538;53.626;9.906;2023-07-29T03:18:52;43.67;;;26.30;;
14892;SDS011;7538;53.626;9.906;2023-07-29T03:21:20;38.92;;;26.08;;
14892;SDS011;7538;53.626;9.906;2023-07-29T03:23:47;26.25;;;20.92;;
14892;SDS011;7538;53.626;9.906;2023-07-29T03:26:14;41.35;;;25.30;;
14892;SDS011;7538;53.626;9.906;2023-07-29T03:28:41;28.75;;;21.75;;
14892;SDS011;7538;53.626;9.906;2023-07-29T03:31:09;51.88;;;29.02;;
14892;SDS011;7538;53.626;9.906;2023-07-29T03:33:36;49.17;;;27.52;;
14892;SDS011;7538;53.626;9.906;2023-07-29T03:36:03;34.10;;;24.73;;
14892;SDS011;7538;53.626;9.906;2023-07-29T03:38:32;54.90;;;29.63;;
14892;SDS011;7538;53.626;9.906;2023-07-29T03:44:40;48.67;;;28.95;;
14892;SDS011;7538;53.626;9.906;2023-07-29T03:47:24;30.63;;;23.42;;
14892;SDS011;7538;53.626;9.906;2023-07-29T03:49:51;39.08;;;27.13;;
14892;SDS011;7538;53.626;9.906;2023-07-29T03:52:17;25.83;;;21.27;;
14892;SDS011;7538;53.626;9.906;2023-07-29T03:54:46;53.13;;;29.33;;
14892;SDS011;7538;53.626;9.906;2023-07-29T03:57:12;36.33;;;25.55;;
14892;SDS011;7538;53.626;9.906;2023-07-29T03:59:39;52.22;;;27.67;;
14892;SDS011;7538;53.626;9.906;2023-07-29T04:02:06;36.45;;;23.65;;
14892;SDS011;7538;53.626;9.906;2023-07-29T04:04:33;34.00;;;23.52;;
14892;SDS011;7538;53.626;9.906;2023-07-29T04:06:59;62.08;;;32.45;;
14892;SDS011;7538;53.626;9.906;2023-07-29T04:09:26;48.55;;;30.67;;
14892;SDS011;7538;53.626;9.906;2023-07-29T04:11:54;77.70;;;32.92;;
14892;SDS011;7538;53.626;9.906;2023-07-29T04:14:21;94.18;;;38.03;;
14892;SDS011;7538;53.626;9.906;2023-07-29T04:16:48;50.53;;;29.83;;
14892;SDS011;7538;53.626;9.906;2023-07-29T04:19:15;67.82;;;35.60;;
14892;SDS011;7538;53.626;9.906;2023-07-29T04:21:42;59.38;;;33.38;;
14892;SDS011;7538;53.626;9.906;2023-07-29T04:24:08;44.95;;;28.33;;
14892;SDS011;7538;53.626;9.906;2023-07-29T04:26:35;79.85;;;41.00;;
14892;SDS011;7538;53.626;9.906;2023-07-29T04:29:05;75.30;;;39.38;;
14892;SDS011;7538;53.626;9.906;2023-07-29T04:31:32;107.18;;;44.60;;
14892;SDS011;7538;53.626;9.906;2023-07-29T04:33:58;118.22;;;41.95;;
14892;SDS011;7538;53.626;9.906;2023-07-29T04:36:25;86.80;;;37.85;;
14892;SDS011;7538;53.626;9.906;2023-07-29T04:38:52;124.40;;;47.33;;
14892;SDS011;7538;53.626;9.906;2023-07-29T04:41:30;78.80;;;37.08;;
14892;SDS011;7538;53.626;9.906;2023-07-29T04:48:10;108.78;;;43.08;;
14892;SDS011;7538;53.626;9.906;2023-07-29T04:50:36;119.32;;;45.83;;
14892;SDS011;7538;53.626;9.906;2023-07-29T04:53:03;110.55;;;40.30;;
14892;SDS011;7538;53.626;9.906;2023-07-29T04:55:30;73.63;;;36.30;;
14892;SDS011;7538;53.626;9.906;2023-07-29T04:57:57;94.13;;;40.35;;
14892;SDS011;7538;53.626;9.906;2023-07-29T05:00:25;131.68;;;46.47;;
14892;SDS011;7538;53.626;9.906;2023-07-29T05:02:51;93.20;;;39.00;;
14892;SDS011;7538;53.626;9.906;2023-07-29T05:05:20;132.60;;;45.53;;
14892;SDS011;7538;53.626;9.906;2023-07-29T05:07:46;138.52;;;47.63;;
14892;SDS011;7538;53.626;9.906;2023-07-29T05:10:13;95.45;;;41.60;;
14892;SDS011;7538;53.626;9.906;2023-07-29T05:12:40;105.53;;;44.92;;
14892;SDS011;7538;53.626;9.906;2023-07-29T05:15:07;87.93;;;36.75;;
14892;SDS011;7538;53.626;9.906;2023-07-29T05:17:35;78.38;;;37.40;;
14892;SDS011;7538;53.626;9.906;2023-07-29T05:20:02;76.35;;;37.75;;
14892;SDS011;7538;53.626;9.906;2023-07-29T05:22:30;88.72;;;39.00;;
14892;SDS011;7538;53.626;9.906;2023-07-29T05:24:57;116.07;;;43.63;;
14892;SDS011;7538;53.626;9.906;2023-07-29T05:27:24;65.07;;;36.78;;
14892;SDS011;7538;53.626;9.906;2023-07-29T05:29:51;132.85;;;45.65;;
14892;SDS011;7538;53.626;9.906;2023-07-29T05:32:18;64.80;;;32.83;;
14892;SDS011;7538;53.626;9.906;2023-07-29T05:34:44;69.97;;;35.05;;
14892;SDS011;7538;53.626;9.906;2023-07-29T05:37:11;127.90;;;47.50;;
14892;SDS011;7538;53.626;9.906;2023-07-29T05:39:39;80.57;;;40.80;;
14892;SDS011;7538;53.626;9.906;2023-07-29T05:42:06;83.95;;;40.10;;
14892;SDS011;7538;53.626;9.906;2023-07-29T05:44:33;67.10;;;36.08;;
14892;SDS011;7538;53.626;9.906;2023-07-29T05:47:00;83.25;;;38.67;;
14892;SDS011;7538;53.626;9.906;2023-07-29T05:49:26;65.90;;;35.05;;
14892;SDS011;7538;53.626;9.906;2023-07-29T05:51:53;55.78;;;33.38;;
14892;SDS011;7538;53.626;9.906;2023-07-29T05:54:20;41.55;;;26.42;;
14892;SDS011;7538;53.626;9.906;2023-07-29T05:56:48;45.83;;;32.10;;
14892;SDS011;7538;53.626;9.906;2023-07-29T05:59:15;43.08;;;28.73;;
14892;SDS011;7538;53.626;9.906;2023-07-29T06:01:41;42.85;;;27.92;;
14892;SDS011;7538;53.626;9.906;2023-07-29T06:04:08;38.53;;;26.55;;
14892;SDS011;7538;53.626;9.906;2023-07-29T06:06:35;43.08;;;28.77;;
14892;SDS011;7538;53.626;9.906;2023-07-29T06:09:02;48.80;;;30.35;;
14892;SDS011;7538;53.626;9.906;2023-07-29T06:11:29;49.30;;;26.85;;
14892;SDS011;7538;53.626;9.906;2023-07-29T06:13:57;46.80;;;28.95;;
14892;SDS011;7538;53.626;9.906;2023-07-29T06:16:23;44.65;;;30.30;;
14892;SDS011;7538;53.626;9.906;2023-07-29T06:18:50;39.30;;;28.15;;
14892;SDS011;7538;53.626;9.906;2023-07-29T06:21:17;41.03;;;27.58;;
14892;SDS011;7538;53.626;9.906;2023-07-29T06:23:45;34.17;;;26.02;;
14892;SDS011;7538;53.626;9.906;2023-07-29T06:26:12;37.83;;;27.00;;
14892;SDS011;7538;53.626;9.906;2023-07-29T06:28:38;31.73;;;23.83;;
14892;SDS011;7538;53.626;9.906;2023-07-29T06:31:06;23.90;;;21.15;;
14892;SDS011;7538;53.626;9.906;2023-07-29T06:33:33;29.60;;;24.13;;
14892;SDS011;7538;53.626;9.906;2023-07-29T06:36:00;29.80;;;25.10;;
14892;SDS011;7538;53.626;9.906;2023-07-29T06:38:27;32.20;;;24.73;;
14892;SDS011;7538;53.626;9.906;2023-07-29T06:40:53;24.08;;;20.60;;
14892;SDS011;7538;53.626;9.906;2023-07-29T06:43:20;31.67;;;25.83;;
14892;SDS011;7538;53.626;9.906;2023-07-29T06:45:47;23.90;;;20.95;;
14892;SDS011;7538;53.626;9.906;2023-07-29T06:48:15;23.48;;;20.80;;
14892;SDS011;7538;53.626;9.906;2023-07-29T06:50:43;40.05;;;26.52;;
14892;SDS011;7538;53.626;9.906;2023-07-29T06:53:10;27.42;;;24.50;;
14892;SDS011;7538;53.626;9.906;2023-07-29T06:55:37;33.22;;;23.45;;
14892;SDS011;7538;53.626;9.906;2023-07-29T06:58:04;33.53;;;26.85;;
14892;SDS011;7538;53.626;9.906;2023-07-29T07:00:31;28.65;;;22.95;;
14892;SDS011;7538;53.626;9.906;2023-07-29T07:02:57;26.00;;;20.42;;
14892;SDS011;7538;53.626;9.906;2023-07-29T07:05:25;29.88;;;24.15;;
14892;SDS011;7538;53.626;9.906;2023-07-29T07:07:52;41.78;;;26.83;;
14892;SDS011;7538;53.626;9.906;2023-07-29T07:10:19;24.98;;;21.02;;
14892;SDS011;7538;53.626;9.906;2023-07-29T07:12:46;31.67;;;25.90;;
14892;SDS011;7538;53.626;9.906;2023-07-29T07:15:13;29.23;;;22.70;;
14892;SDS011;7538;53.626;9.906;2023-07-29T07:17:39;34.17;;;26.23;;
14892;SDS011;7538;53.626;9.906;2023-07-29T07:20:07;36.38;;;28.52;;
14892;SDS011;7538;53.626;9.906;2023-07-29T07:22:35;35.13;;;29.17;;
14892;SDS011;7538;53.626;9.906;2023-07-29T07:25:02;32.20;;;25.77;;
14892;SDS011;7538;53.626;9.906;2023-07-29T07:27:29;37.15;;;29.40;;
14892;SDS011;7538;53.626;9.906;2023-07-29T07:29:56;30.77;;;26.02;;
14892;SDS011;7538;53.626;9.906;2023-07-29T07:32:22;42.85;;;31.20;;
14892;SDS011;7538;53.626;9.906;2023-07-29T07:34:49;36.22;;;28.13;;
14892;SDS011;7538;53.626;9.906;2023-07-29T07:37:16;41.42;;;30.52;;
14892;SDS011;7538;53.626;9.906;2023-07-29T07:39:44;33.38;;;27.48;;
14892;SDS011;7538;53.626;9.906;2023-07-29T07:42:11;34.42;;;26.73;;
14892;SDS011;7538;53.626;9.906;2023-07-29T07:44:38;40.55;;;30.48;;
14892;SDS011;7538;53.626;9.906;2023-07-29T07:47:04;33.58;;;26.83;;
14892;SDS011;7538;53.626;9.906;2023-07-29T07:49:31;27.65;;;24.73;;
14892;SDS011;7538;53.626;9.906;2023-07-29T07:51:58;32.30;;;27.48;;
14892;SDS011;7538;53.626;9.906;2023-07-29T07:54:25;24.75;;;22.02;;
14892;SDS011;7538;53.626;9.906;2023-07-29T07:56:53;27.33;;;23.20;;
14892;SDS011;7538;53.626;9.906;2023-07-29T07:59:20;22.08;;;19.67;;
14892;SDS011;7538;53.626;9.906;2023-07-29T08:01:46;22.95;;;19.00;;
14892;SDS011;7538;53.626;9.906;2023-07-29T08:04:13;19.98;;;17.85;;
14892;SDS011;7538;53.626;9.906;2023-07-29T08:06:40;23.02;;;20.63;;
14892;SDS011;7538;53.626;9.906;2023-07-29T08:09:07;22.88;;;20.48;;
14892;SDS011;7538;53.626;9.906;2023-07-29T08:11:33;22.20;;;19.10;;
14892;SDS011;7538;53.626;9.906;2023-07-29T08:14:02;22.75;;;20.33;;
14892;SDS011;7538;53.626;9.906;2023-07-29T08:16:28;19.65;;;17.15;;
14892;SDS011;7538;53.626;9.906;2023-07-29T08:18:55;17.92;;;16.08;;
14892;SDS011;7538;53.626;9.906;2023-07-29T08:21:22;23.67;;;21.25;;
14892;SDS011;7538;53.626;9.906;2023-07-29T08:23:49;22.92;;;20.08;;
14892;SDS011;7538;53.626;9.906;2023-07-29T08:26:16;23.90;;;20.30;;
14892;SDS011;7538;53.626;9.906;2023-07-29T08:28:42;24.63;;;21.27;;
14892;SDS011;7538;53.626;9.906;2023-07-29T08:31:11;23.23;;;20.83;;
14892;SDS011;7538;53.626;9.906;2023-07-29T08:33:37;21.13;;;18.85;;
14892;SDS011;7538;53.626;9.906;2023-07-29T08:36:04;24.45;;;21.20;;
14892;SDS011;7538;53.626;9.906;2023-07-29T08:38:31;23.42;;;21.02;;
14892;SDS011;7538;53.626;9.906;2023-07-29T08:40:58;25.27;;;21.70;;
14892;SDS011;7538;53.626;9.906;2023-07-29T08:43:31;25.15;;;22.50;;
14892;SDS011;7538;53.626;9.906;2023-07-29T08:45:59;25.63;;;21.45;;
14892;SDS011;7538;53.626;9.906;2023-07-29T08:48:32;24.02;;;21.52;;
14892;SDS011;7538;53.626;9.906;2023-07-29T08:51:03;22.35;;;20.08;;
14892;SDS011;7538;53.626;9.906;2023-07-29T08:53:31;22.70;;;20.23;;
14892;SDS011;7538;53.626;9.906;2023-07-29T08:55:58;21.33;;;19.15;;
14892;SDS011;7538;53.626;9.906;2023-07-29T08:58:25;22.38;;;20.10;;
14892;SDS011;7538;53.626;9.906;2023-07-29T09:00:53;22.13;;;19.92;;
14892;SDS011;7538;53.626;9.906;2023-07-29T09:03:20;19.35;;;17.35;;
14892;SDS011;7538;53.626;9.906;2023-07-29T09:05:48;21.55;;;19.27;;
14892;SDS011;7538;53.626;9.906;2023-07-29T09:08:16;18.55;;;16.73;;
14892;SDS011;7538;53.626;9.906;2023-07-29T09:10:44;17.05;;;15.23;;
14892;SDS011;7538;53.626;9.906;2023-07-29T09:13:10;18.17;;;16.38;;
14892;SDS011;7538;53.626;9.906;2023-07-29T09:15:37;14.65;;;13.25;;
14892;SDS011;7538;53.626;9.906;2023-07-29T09:18:11;18.13;;;16.42;;
14892;SDS011;7538;53.626;9.906;2023-07-29T09:20:41;16.27;;;14.68;;
14892;SDS011;7538;53.626;9.906;2023-07-29T09:23:09;16.00;;;14.50;;
14892;SDS011;7538;53.626;9.906;2023-07-29T09:25:37;15.13;;;13.63;;
14892;SDS011;7538;53.626;9.906;2023-07-29T09:28:07;13.73;;;12.43;;
14892;SDS011;7538;53.626;9.906;2023-07-29T09:30:35;16.42;;;14.93;;
14892;SDS011;7538;53.626;9.906;2023-07-29T09:33:03;16.67;;;13.43;;
14892;SDS011;7538;53.626;9.906;2023-07-29T09:35:32;16.15;;;14.55;;
14892;SDS011;7538;53.626;9.906;2023-07-29T09:38:00;12.27;;;11.23;;
14892;SDS011;7538;53.626;9.906;2023-07-29T09:40:28;12.80;;;11.60;;
14892;SDS011;7538;53.626;9.906;2023-07-29T09:43:01;12.50;;;11.43;;
14892;SDS011;7538;53.626;9.906;2023-07-29T09:45:27;10.63;;;9.65;;
14892;SDS011;7538;53.626;9.906;2023-07-29T09:47:54;10.65;;;9.75;;
14892;SDS011;7538;53.626;9.906;2023-07-29T09:50:23;11.13;;;10.13;;
14892;SDS011;7538;53.626;9.906;2023-07-29T09:52:51;8.50;;;7.80;;
14892;SDS011;7538;53.626;9.906;2023-07-29T09:55:19;7.65;;;6.97;;
14892;SDS011;7538;53.626;9.906;2023-07-29T09:57:49;7.75;;;7.05;;
14892;SDS011;7538;53.626;9.906;2023-07-29T10:00:20;6.18;;;5.68;;
14892;SDS011;7538;53.626;9.906;2023-07-29T10:02:47;6.70;;;6.00;;
14892;SDS011;7538;53.626;9.906;2023-07-29T10:05:14;6.90;;;6.30;;
14892;SDS011;7538;53.626;9.906;2023-07-29T10:07:42;6.93;;;6.32;;
14892;SDS011;7538;53.626;9.906;2023-07-29T10:10:09;6.57;;;6.03;;
14892;SDS011;7538;53.626;9.906;2023-07-29T10:12:39;6.43;;;5.93;;
14892;SDS011;7538;53.626;9.906;2023-07-29T10:15:09;6.45;;;6.03;;
14892;SDS011;7538;53.626;9.906;2023-07-29T10:17:37;5.82;;;5.30;;
14892;SDS011;7538;53.626;9.906;2023-07-29T10:20:05;4.95;;;4.55;;
14892;SDS011;7538;53.626;9.906;2023-07-29T10:22:35;6.03;;;5.43;;
14892;SDS011;7538;53.626;9.906;2023-07-29T10:25:04;4.88;;;4.47;;
14892;SDS011;7538;53.626;9.906;2023-07-29T10:27:35;6.10;;;5.53;;
14892;SDS011;7538;53.626;9.906;2023-07-29T10:30:09;5.13;;;4.72;;
14892;SDS011;7538;53.626;9.906;2023-07-29T10:32:38;5.18;;;4.78;;
14892;SDS011;7538;53.626;9.906;2023-07-29T10:35:08;5.72;;;5.22;;
14892;SDS011;7538;53.626;9.906;2023-07-29T10:37:35;4.70;;;4.30;;
14892;SDS011;7538;53.626;9.906;2023-07-29T10:40:05;3.95;;;3.45;;
14892;SDS011;7538;53.626;9.906;2023-07-29T10:42:33;3.92;;;3.35;;
14892;SDS011;7538;53.626;9.906;2023-07-29T10:45:00;3.67;;;3.17;;
14892;SDS011;7538;53.626;9.906;2023-07-29T10:47:44;3.70;;;3.08;;
14892;SDS011;7538;53.626;9.906;2023-07-29T10:50:16;3.75;;;3.38;;
14892;SDS011;7538;53.626;9.906;2023-07-29T10:52:46;4.10;;;3.70;;
14892;SDS011;7538;53.626;9.906;2023-07-29T10:55:25;3.60;;;3.30;;
14892;SDS011;7538;53.626;9.906;2023-07-29T10:58:04;3.70;;;3.40;;
14892;SDS011;7538;53.626;9.906;2023-07-29T11:00:32;3.40;;;3.20;;
14892;SDS011;7538;53.626;9.906;2023-07-29T11:03:01;4.05;;;3.75;;
14892;SDS011;7538;53.626;9.906;2023-07-29T11:05:41;4.00;;;3.60;;
14892;SDS011;7538;53.626;9.906;2023-07-29T11:08:20;3.00;;;2.75;;
14892;SDS011;7538;53.626;9.906;2023-07-29T11:13:34;3.03;;;2.72;;
14892;SDS011;7538;53.626;9.906;2023-07-29T11:16:02;2.72;;;2.40;;
14892;SDS011;7538;53.626;9.906;2023-07-29T11:18:31;3.08;;;2.78;;
14892;SDS011;7538;53.626;9.906;2023-07-29T11:21:00;3.17;;;2.80;;
14892;SDS011;7538;53.626;9.906;2023-07-29T11:23:28;2.65;;;2.45;;
14892;SDS011;7538;53.626;9.906;2023-07-29T11:25:56;2.80;;;2.60;;
14892;SDS011;7538;53.626;9.906;2023-07-29T11:28:23;3.60;;;3.30;;
14892;SDS011;7538;53.626;9.906;2023-07-29T11:30:50;5.05;;;4.65;;
14892;SDS011;7538;53.626;9.906;2023-07-29T11:33:17;3.50;;;3.20;;
14892;SDS011;7538;53.626;9.906;2023-07-29T11:35:47;4.32;;;3.92;;
14892;SDS011;7538;53.626;9.906;2023-07-29T11:38:15;3.60;;;3.30;;
14892;SDS011;7538;53.626;9.906;2023-07-29T11:40:43;3.78;;;3.42;;
14892;SDS011;7538;53.626;9.906;2023-07-29T11:43:19;4.07;;;3.77;;
14892;SDS011;7538;53.626;9.906;2023-07-29T11:45:46;3.60;;;3.30;;
14892;SDS011;7538;53.626;9.906;2023-07-29T11:48:12;4.30;;;3.90;;
14892;SDS011;7538;53.626;9.906;2023-07-29T11:50:39;4.03;;;3.65;;
14892;SDS011;7538;53.626;9.906;2023-07-29T11:53:08;4.80;;;3.38;;
14892;SDS011;7538;53.626;9.906;2023-07-29T11:55:35;4.28;;;3.47;;
14892;SDS011;7538;53.626;9.906;2023-07-29T11:58:02;3.25;;;2.95;;
14892;SDS011;7538;53.626;9.906;2023-07-29T12:00:31;3.33;;;3.13;;
14892;SDS011;7538;53.626;9.906;2023-07-29T12:02:57;3.20;;;2.95;;
14892;SDS011;7538;53.626;9.906;2023-07-29T12:05:24;3.13;;;2.92;;
14892;SDS011;7538;53.626;9.906;2023-07-29T12:07:51;2.85;;;2.65;;
14892;SDS011;7538;53.626;9.906;2023-07-29T12:10:20;2.83;;;2.63;;
14892;SDS011;7538;53.626;9.906;2023-07-29T12:12:47;3.30;;;3.00;;
14892;SDS011;7538;53.626;9.906;2023-07-29T12:15:22;3.00;;;2.80;;
14892;SDS011;7538;53.626;9.906;2023-07-29T12:17:51;2.78;;;2.55;;
14892;SDS011;7538;53.626;9.906;2023-07-29T12:20:20;2.95;;;2.72;;
14892;SDS011;7538;53.626;9.906;2023-07-29T12:22:51;3.03;;;2.60;;
14892;SDS011;7538;53.626;9.906;2023-07-29T12:25:20;2.60;;;2.40;;
14892;SDS011;7538;53.626;9.906;2023-07-29T12:27:47;5.43;;;2.72;;
14892;SDS011;7538;53.626;9.906;2023-07-29T12:30:13;2.97;;;2.53;;
14892;SDS011;7538;53.626;9.906;2023-07-29T12:32:44;2.50;;;2.30;;
14892;SDS011;7538;53.626;9.906;2023-07-29T12:35:11;2.70;;;2.50;;
14892;SDS011;7538;53.626;9.906;2023-07-29T12:37:38;2.72;;;2.20;;
14892;SDS011;7538;53.626;9.906;2023-07-29T12:40:08;2.50;;;2.30;;
14892;SDS011;7538;53.626;9.906;2023-07-29T12:42:47;2.30;;;2.10;;
14892;SDS011;7538;53.626;9.906;2023-07-29T12:45:15;2.75;;;2.42;;
14892;SDS011;7538;53.626;9.906;2023-07-29T12:47:42;2.42;;;2.22;;
14892;SDS011;7538;53.626;9.906;2023-07-29T12:50:09;2.63;;;2.42;;
14892;SDS011;7538;53.626;9.906;2023-07-29T12:52:36;2.35;;;2.15;;
14892;SDS011;7538;53.626;9.906;2023-07-29T12:55:03;2.70;;;2.50;;
14892;SDS011;7538;53.626;9.906;2023-07-29T12:57:30;2.58;;;2.20;;
14892;SDS011;7538;53.626;9.906;2023-07-29T12:59:58;2.50;;;2.30;;
14892;SDS011;7538;53.626;9.906;2023-07-29T13:02:25;2.05;;;1.92;;
14892;SDS011;7538;53.626;9.906;2023-07-29T13:04:51;1.88;;;1.77;;
14892;SDS011;7538;53.626;9.906;2023-07-29T13:07:18;2.10;;;1.90;;
14892;SDS011;7538;53.626;9.906;2023-07-29T13:09:45;2.47;;;1.95;;
14892;SDS011;7538;53.626;9.906;2023-07-29T13:12:12;2.00;;;1.80;;
14892;SDS011;7538;53.626;9.906;2023-07-29T13:14:38;2.78;;;2.33;;
14892;SDS011;7538;53.626;9.906;2023-07-29T13:17:07;2.60;;;2.40;;
14892;SDS011;7538;53.626;9.906;2023-07-29T13:19:33;3.63;;;2.10;;
14892;SDS011;7538;53.626;9.906;2023-07-29T13:22:00;2.80;;;2.40;;
14892;SDS011;7538;53.626;9.906;2023-07-29T13:24:27;4.10;;;2.20;;
14892;SDS011;7538;53.626;9.906;2023-07-29T13:26:54;3.35;;;2.13;;
14892;SDS011;7538;53.626;9.906;2023-07-29T13:29:21;2.40;;;2.20;;
14892;SDS011;7538;53.626;9.906;2023-07-29T13:31:48;2.28;;;2.08;;
14892;SDS011;7538;53.626;9.906;2023-07-29T13:34:16;3.03;;;2.20;;
14892;SDS011;7538;53.626;9.906;2023-07-29T13:36:43;2.50;;;2.30;;
14892;SDS011;7538;53.626;9.906;2023-07-29T13:39:10;3.25;;;2.20;;
14892;SDS011;7538;53.626;9.906;2023-07-29T13:41:37;3.03;;;2.22;;
14892;SDS011;7538;53.626;9.906;2023-07-29T13:44:03;2.00;;;1.90;;
14892;SDS011;7538;53.626;9.906;2023-07-29T13:46:30;2.20;;;2.00;;
14892;SDS011;7538;53.626;9.906;2023-07-29T13:48:57;2.53;;;1.95;;
14892;SDS011;7538;53.626;9.906;2023-07-29T13:51:25;2.42;;;2.00;;
14892;SDS011;7538;53.626;9.906;2023-07-29T13:53:52;3.78;;;2.20;;
14892;SDS011;7538;53.626;9.906;2023-07-29T13:56:19;2.80;;;2.22;;
14892;SDS011;7538;53.626;9.906;2023-07-29T13:58:46;4.03;;;2.17;;
14892;SDS011;7538;53.626;9.906;2023-07-29T14:01:12;2.90;;;2.20;;
14892;SDS011;7538;53.626;9.906;2023-07-29T14:03:39;4.07;;;2.10;;
14892;SDS011;7538;53.626;9.906;2023-07-29T14:06:06;2.65;;;1.90;;
14892;SDS011;7538;53.626;9.906;2023-07-29T14:08:34;2.63;;;2.42;;
14892;SDS011;7538;53.626;9.906;2023-07-29T14:11:01;2.10;;;1.90;;
14892;SDS011;7538;53.626;9.906;2023-07-29T14:13:28;2.17;;;1.98;;
14892;SDS011;7538;53.626;9.906;2023-07-29T14:15:54;2.35;;;2.00;;
14892;SDS011;7538;53.626;9.906;2023-07-29T14:18:21;2.75;;;2.25;;
14892;SDS011;7538;53.626;9.906;2023-07-29T14:20:48;4.00;;;2.35;;
14892;SDS011;7538;53.626;9.906;2023-07-29T14:23:16;2.40;;;2.20;;
14892;SDS011;7538;53.626;9.906;2023-07-29T14:25:44;3.17;;;2.22;;
14892;SDS011;7538;53.626;9.906;2023-07-29T14:28:12;2.88;;;2.00;;
14892;SDS011;7538;53.626;9.906;2023-07-29T14:30:40;2.22;;;2.03;;
14892;SDS011;7538;53.626;9.906;2023-07-29T14:33:07;4.32;;;2.15;;
14892;SDS011;7538;53.626;9.906;2023-07-29T14:35:33;2.83;;;2.20;;
14892;SDS011;7538;53.626;9.906;2023-07-29T14:38:00;2.10;;;1.90;;
14892;SDS011;7538;53.626;9.906;2023-07-29T14:40:27;2.88;;;1.90;;
14892;SDS011;7538;53.626;9.906;2023-07-29T14:42:55;2.58;;;2.03;;
14892;SDS011;7538;53.626;9.906;2023-07-29T14:45:22;3.45;;;2.03;;
14892;SDS011;7538;53.626;9.906;2023-07-29T14:47:49;2.13;;;1.92;;
14892;SDS011;7538;53.626;9.906;2023-07-29T14:50:15;2.53;;;2.10;;
14892;SDS011;7538;53.626;9.906;2023-07-29T14:52:42;3.20;;;2.25;;
14892;SDS011;7538;53.626;9.906;2023-07-29T14:55:09;3.08;;;2.20;;
14892;SDS011;7538;53.626;9.906;2023-07-29T14:57:36;2.83;;;2.20;;
14892;SDS011;7538;53.626;9.906;2023-07-29T15:00:04;5.28;;;2.45;;
14892;SDS011;7538;53.626;9.906;2023-07-29T15:02:32;2.67;;;2.30;;
14892;SDS011;7538;53.626;9.906;2023-07-29T15:04:59;2.90;;;2.15;;
14892;SDS011;7538;53.626;9.906;2023-07-29T15:07:25;2.95;;;2.28;;
14892;SDS011;7538;53.626;9.906;2023-07-29T15:09:52;3.95;;;2.08;;